Camarillo, CA (93012)

1:26 AM PDT on March 29, 2015 (GMT -0700)
APRSWXNET Newbury Park CA US | | Change Station
CLOSE
Current Station
Personal Weather Station
Location: Camarillo, CA
Elevation: 725 ft
Nearby Weather Stations
Active Advisory: Beach Hazard Statement Active Notice: Record Report

Elev 725 ft 34.20 °N, 118.96 °W | Updated 28 minutes ago

Clear
Clear
52 °F
Feels Like 52 °F
N
0
Wind Variable Wind from WNW
Gusts 0.0 mph

Today
High -- | Low -- °F
--% Chance of Precip.
Yesterday
High -- | Low -- °F
Precip. -- in
6:47 AM 7:14 PM
Waxing Gibbous, 69% visible
Pressure 30.06 in
Visibility 9.0 miles
Clouds Clear
Dew Point 50 °F
Humidity 92%
Rainfall in
Snow Depth Not available.
UV 0 out of 12
Pollen 9.90 out of 12
Air Quality Not available.
Flu Activity Not available.
METAR KCMA 290755Z AUTO 06003KT 9SM CLR 13/11 A3004 RMK AO2 SLP180 T01330106 402220100

More Conditions Fewer Conditions

Pressure 30.06 in
Visibility 9.0 miles
Clouds Clear
Dew Point 50 °F
Humidity 92%
Rainfall in
Snow Depth Not available.
UV 0 out of 12
Pollen 9.90 out of 12
Air Quality Not available.
Flu Activity Not available.
METAR KCMA 290755Z AUTO 06003KT 9SM CLR 13/11 A3004 RMK AO2 SLP180 T01330106 402220100

More Conditions Fewer Conditions

10-Day Weather Forecast

Almanac

Astronomy

Mar. 29, 2015 Rise Set
Actual Time
Civil Twilight
Nautical Twilight
Astronomical Twilight
Moon
Length of Visible Light
Length of Day
Tomorrow will be .
, % of the Moon is Illuminated

Today's Extremes

State Highs State Lows

Community

WunderPhotos

Upload Photos

1,809,187 photos uploaded!

WunderBlogs® & News

Nearby

Air Quality

  Air Quality AQ Index Pollutant
Not available.

Snow Depth

Station Depth Elevation

Earthquake Activity

City Distance Mag. Time & Date
Minimum magnitude displayed is 2.5.

Coastal Water Temperatures

Place Temperature

Stations

Nearby Weather Stations

Station Location Temp. Windchill Dew Point Humidity Wind Precip. Elev Updated Type
                   
Beach Hazard Statement
Statement as of 11:21 PM PDT on March 28, 2015

... Beach hazards statement remains in effect through Sunday
afternoon...

* hazards and timing... surf will range from 3 to 5 feet. Frequent
strong rip currents and strong long-shore currents are likely.

* Tides... the lower high tide is expected to occur in the evening
with the higher high tide occurring in the early morning.

* Impacts... elevated surf will bring strong rip currents and long-
shore currents to area beaches along with a risk of sneaker
waves. Long period swell also causes more powerful surf and a
potential for minor beach erosion during times of high tide.

Precautionary/preparedness actions...

A beach hazards statement is issued when threats to beach and
surf zone safety are expected or occurring. Caution should be
used when in or near the water. Stay near occupied lifeguard
towers and never swim alone. If caught in a rip current... swim
parallel to the shore.